Darya Jyoti — VRGM9 — position and weather

sailwx.info

Track history (hours):
 
Tides and Currents Weather Stations Pressure Air Temp Water Temp Dewpoint Dewpoint Depression Visibility Wind Speed Wind Dir Waves Ship Positions

Darya Jyoti

Last reported at 2015-Jan-10 23:26 UTC. Time now 2015-Jan-28 12:07 UTC.
Position N 01°57' E 102°15'.
Warning: this ship's position is 17 days out of date.

Length 229 m; draft 15 m.

Type: Cargo ship. MMSI: 477742700.

Date/timePositionNaut miles runAvg speedWind from/ knotsBaromVisibWave heightAir tempDewpointWater temp
2015-Jan-10 23:26N 01°57' E 102°15'1111.9
2015-Jan-10 22:29N 01°53' E 102°26'1112.0
2015-Jan-10 21:33N 01°48' E 102°36'1511.6
2015-Jan-10 20:17N 01°42' E 102°49'67 9.9
2015-Jan-10 13:29N 01°11' E 103°49'910.1
2015-Jan-10 12:33N 01°15' E 103°58'3 1.9
2015-Jan-10 11:10N 01°17' E 103°59'0 0.0
2015-Jan-10 10:34N 01°17' E 103°59'0 0.0
2015-Jan-10 09:34N 01°17' E 103°59'0 0.1
2015-Jan-10 08:30N 01°17' E 103°60'0 0.1
2015-Jan-10 07:33N 01°17' E 103°59'0 0.1
2015-Jan-10 06:15N 01°17' E 103°59'0 0.1
2015-Jan-10 05:28N 01°17' E 103°59'0 0.0
2015-Jan-10 04:31N 01°17' E 103°59'0 0.0
2015-Jan-10 03:33N 01°17' E 103°59'0 0.0
2015-Jan-10 02:34N 01°17' E 103°59'0 0.0
2015-Jan-10 01:19N 01°17' E 103°59'0 0.0
2015-Jan-10 00:34N 01°17' E 103°59'0 0.0
2015-Jan-09 23:33N 01°17' E 103°59'0 0.0
2015-Jan-09 22:33N 01°17' E 103°59'0 0.0
2015-Jan-09 21:15N 01°17' E 103°59'0 0.0
2015-Jan-09 20:27N 01°17' E 103°59'0 0.0
2015-Jan-09 19:33N 01°17' E 103°59'0 0.0
2015-Jan-09 18:28N 01°17' E 103°59'0 0.0
2015-Jan-09 17:33N 01°17' E 103°59'0 0.1
2015-Jan-09 16:15N 01°17' E 103°59'2 1.8
2015-Jan-09 15:22N 01°16' E 103°58'3 4.0
2015-Jan-09 14:33N 01°16' E 104°01'6 5.6
2015-Jan-09 13:33N 01°17' E 104°07'7 6.5
2015-Jan-09 12:25N 01°18' E 104°14'  
2015-Jan-04 02:32N 22°22' E 119°17'  
Track history (hours):
 
Tides and Currents Weather Stations Pressure Air Temp Water Temp Dewpoint Dewpoint Depression Visibility Wind Speed Wind Dir Waves Ship Positions

Darya Jyoti

Last reported at 2015-Jan-10 23:26 UTC. Time now 2015-Jan-28 12:07 UTC.
Position N 01°57' E 102°15'.
Warning: this ship's position is 17 days out of date.

Length 229 m; draft 15 m.

Type: Cargo ship. MMSI: 477742700.

Date/timePositionNaut miles runAvg speedWind from/ knotsBaromVisibWave heightAir tempDewpointWater temp
2015-Jan-10 23:26N 01°57' E 102°15'1111.9
2015-Jan-10 22:29N 01°53' E 102°26'1112.0
2015-Jan-10 21:33N 01°48' E 102°36'1511.6
2015-Jan-10 20:17N 01°42' E 102°49'67 9.9
2015-Jan-10 13:29N 01°11' E 103°49'910.1
2015-Jan-10 12:33N 01°15' E 103°58'3 1.9
2015-Jan-10 11:10N 01°17' E 103°59'0 0.0
2015-Jan-10 10:34N 01°17' E 103°59'0 0.0
2015-Jan-10 09:34N 01°17' E 103°59'0 0.1
2015-Jan-10 08:30N 01°17' E 103°60'0 0.1
2015-Jan-10 07:33N 01°17' E 103°59'0 0.1
2015-Jan-10 06:15N 01°17' E 103°59'0 0.1
2015-Jan-10 05:28N 01°17' E 103°59'0 0.0
2015-Jan-10 04:31N 01°17' E 103°59'0 0.0
2015-Jan-10 03:33N 01°17' E 103°59'0 0.0
2015-Jan-10 02:34N 01°17' E 103°59'0 0.0
2015-Jan-10 01:19N 01°17' E 103°59'0 0.0
2015-Jan-10 00:34N 01°17' E 103°59'0 0.0
2015-Jan-09 23:33N 01°17' E 103°59'0 0.0
2015-Jan-09 22:33N 01°17' E 103°59'0 0.0
2015-Jan-09 21:15N 01°17' E 103°59'0 0.0
2015-Jan-09 20:27N 01°17' E 103°59'0 0.0
2015-Jan-09 19:33N 01°17' E 103°59'0 0.0
2015-Jan-09 18:28N 01°17' E 103°59'0 0.0
2015-Jan-09 17:33N 01°17' E 103°59'0 0.1
2015-Jan-09 16:15N 01°17' E 103°59'2 1.8
2015-Jan-09 15:22N 01°16' E 103°58'3 4.0
2015-Jan-09 14:33N 01°16' E 104°01'6 5.6
2015-Jan-09 13:33N 01°17' E 104°07'7 6.5
2015-Jan-09 12:25N 01°18' E 104°14'  
2015-Jan-04 02:32N 22°22' E 119°17'  

Dump ship's entire track history